Time;durP1;ratioP1;P1;durP2;ratioP2;P2;SDS_P1;SDS_P2;PMS_P1;PMS_P2;Temp;Humidity;BMP_temperature;BMP_pressure;BME280_temperature;BME280_humidity;BME280_pressure;Samples;Min_cycle;Max_cycle;Signal;HPM_P1;HPM_P2
2021/09/17 00:02:09;;;;;;;0.73;0.37;;;;;;;;;;10406354;28;20036;-62
2021/09/17 00:07:07;;;;;;;1.13;0.50;;;;;;;;;;10398099;28;20036;-63
2021/09/17 00:12:04;;;;;;;0.20;0.20;;;;;;;;;;10404280;28;20606;-63
2021/09/17 00:17:02;;;;;;;0.30;0.20;;;;;;;;;;10418221;28;20036;-64
2021/09/17 00:21:59;;;;;;;2.43;0.60;;;;;;;;;;10398287;28;20044;-64
2021/09/17 00:26:57;;;;;;;0.00;0.00;;;;;;;;;;10403694;28;20042;-63
2021/09/17 00:31:54;;;;;;;1.90;0.40;;;;;;;;;;10412101;28;20033;-63
2021/09/17 00:36:51;;;;;;;0.00;0.00;;;;;;;;;;10417054;28;20036;-63
2021/09/17 00:41:49;;;;;;;0.93;0.40;;;;;;;;;;10413225;28;20036;-62
2021/09/17 00:46:46;;;;;;;0.83;0.10;;;;;;;;;;10416929;28;20139;-63
2021/09/17 00:51:44;;;;;;;1.07;0.40;;;;;;;;;;10403109;28;20036;-62
2021/09/17 00:56:42;;;;;;;0.03;0.03;;;;;;;;;;10415186;28;20028;-63
2021/09/17 01:01:40;;;;;;;3.15;0.68;;;;;;;;;;10412261;28;20028;-63
2021/09/17 01:06:37;;;;;;;0.27;0.27;;;;;;;;;;10414856;28;20048;-63
2021/09/17 01:11:35;;;;;;;3.30;0.37;;;;;;;;;;10403331;28;20024;-67
2021/09/17 01:16:33;;;;;;;0.10;0.10;;;;;;;;;;10396058;28;20012;-62
2021/09/17 01:21:30;;;;;;;1.50;0.13;;;;;;;;;;10407746;28;20026;-62
2021/09/17 01:26:28;;;;;;;1.60;0.40;;;;;;;;;;10419053;28;20036;-63
2021/09/17 01:31:25;;;;;;;3.30;0.33;;;;;;;;;;10409200;28;20050;-61
2021/09/17 01:36:22;;;;;;;1.20;0.50;;;;;;;;;;10409277;28;20427;-62
2021/09/17 01:41:20;;;;;;;0.33;0.33;;;;;;;;;;10410836;28;20024;-60
2021/09/17 01:46:20;;;;;;;0.10;0.10;;;;;;;;;;10404461;28;20488;-59
2021/09/17 01:51:18;;;;;;;0.10;0.10;;;;;;;;;;10409366;28;20032;-62
2021/09/17 01:56:15;;;;;;;0.30;0.10;;;;;;;;;;10408678;28;20402;-60
2021/09/17 02:01:13;;;;;;;0.57;0.20;;;;;;;;;;10415295;28;20046;-62
2021/09/17 02:06:17;;;;;;;0.87;0.83;;;;;;;;;;10412833;28;20037;-61
2021/09/17 02:11:14;;;;;;;0.20;0.10;;;;;;;;;;10412173;28;20689;-62
2021/09/17 02:16:12;;;;;;;2.50;0.80;;;;;;;;;;10403285;28;20043;-63
2021/09/17 02:21:09;;;;;;;0.40;0.40;;;;;;;;;;10412378;28;20032;-62
2021/09/17 02:26:07;;;;;;;7.80;0.90;;;;;;;;;;10408684;28;20032;-62
2021/09/17 02:31:05;;;;;;;0.40;0.40;;;;;;;;;;10409768;28;20041;-64
2021/09/17 02:36:03;;;;;;;1.40;0.22;;;;;;;;;;10400185;28;20456;-63
2021/09/17 02:41:00;;;;;;;1.40;0.40;;;;;;;;;;10412029;28;20037;-63
2021/09/17 02:45:59;;;;;;;2.07;0.30;;;;;;;;;;10397096;28;20089;-63
2021/09/17 02:50:56;;;;;;;;;;;;;;;;;;10410954;28;20378;-64
2021/09/17 02:55:53;;;;;;;1.45;0.35;;;;;;;;;;10391948;28;19912;-63
2021/09/17 03:00:51;;;;;;;0.88;0.20;;;;;;;;;;10420186;28;20114;-64
2021/09/17 03:05:49;;;;;;;0.10;0.10;;;;;;;;;;10422249;28;20110;-61
2021/09/17 03:10:46;;;;;;;1.70;0.17;;;;;;;;;;10379118;28;20040;-64
2021/09/17 03:15:44;;;;;;;1.10;0.20;;;;;;;;;;10410325;28;20036;-63
2021/09/17 03:20:42;;;;;;;1.00;0.30;;;;;;;;;;10418676;28;20104;-63
2021/09/17 03:25:39;;;;;;;5.00;0.40;;;;;;;;;;10417633;28;20040;-62
2021/09/17 03:30:37;;;;;;;0.97;0.30;;;;;;;;;;10418689;28;20126;-63
2021/09/17 03:35:34;;;;;;;0.77;0.10;;;;;;;;;;10400812;28;20032;-62
2021/09/17 03:40:32;;;;;;;0.63;0.63;;;;;;;;;;10421713;28;20435;-62
2021/09/17 03:45:32;;;;;;;0.60;0.10;;;;;;;;;;10372756;28;20059;-62
2021/09/17 03:50:29;;;;;;;3.20;0.50;;;;;;;;;;10400988;28;20085;-64
2021/09/17 03:55:27;;;;;;;1.70;0.20;;;;;;;;;;10403926;28;20481;-65
2021/09/17 04:00:24;;;;;;;1.30;0.43;;;;;;;;;;10369953;28;20172;-64
2021/09/17 04:05:21;;;;;;;2.00;0.33;;;;;;;;;;10407276;28;20024;-64
2021/09/17 04:10:19;;;;;;;1.30;0.20;;;;;;;;;;10398321;28;20321;-65
2021/09/17 04:15:17;;;;;;;1.60;0.30;;;;;;;;;;10376504;28;20039;-63
2021/09/17 04:20:14;;;;;;;0.97;0.30;;;;;;;;;;10404604;28;20071;-64
2021/09/17 04:25:11;;;;;;;0.20;0.20;;;;;;;;;;10390656;28;20057;-64
2021/09/17 04:30:09;;;;;;;0.00;0.00;;;;;;;;;;10406985;28;20047;-64
2021/09/17 04:35:07;;;;;;;0.30;0.30;;;;;;;;;;10387071;28;20409;-65
2021/09/17 04:40:04;;;;;;;0.20;0.20;;;;;;;;;;10405585;28;20449;-63
2021/09/17 04:45:02;;;;;;;3.53;0.45;;;;;;;;;;10398662;28;20051;-63
2021/09/17 04:50:02;;;;;;;2.28;0.50;;;;;;;;;;10385264;28;20509;-66
2021/09/17 04:55:00;;;;;;;0.55;0.30;;;;;;;;;;10402304;28;20590;-65
2021/09/17 04:59:57;;;;;;;0.20;0.20;;;;;;;;;;10393945;28;20189;-63
2021/09/17 05:04:54;;;;;;;1.60;0.60;;;;;;;;;;10401594;28;20036;-63
2021/09/17 05:09:52;;;;;;;0.50;0.43;;;;;;;;;;10375881;28;20044;-64
2021/09/17 05:14:49;;;;;;;1.03;0.30;;;;;;;;;;10410160;28;20047;-65
2021/09/17 05:19:47;;;;;;;2.03;0.50;;;;;;;;;;10401560;28;20084;-63
2021/09/17 05:24:44;;;;;;;0.53;0.20;;;;;;;;;;10368801;28;20040;-65
2021/09/17 05:29:41;;;;;;;0.50;0.20;;;;;;;;;;10390927;28;20325;-64
2021/09/17 05:34:39;;;;;;;0.23;0.20;;;;;;;;;;10389557;28;20035;-63
2021/09/17 05:39:36;;;;;;;0.33;0.20;;;;;;;;;;10383931;28;20035;-65
2021/09/17 05:44:34;;;;;;;0.20;0.20;;;;;;;;;;10400449;28;20035;-63
2021/09/17 05:49:31;;;;;;;1.77;0.30;;;;;;;;;;10396214;28;20100;-65
2021/09/17 05:54:32;;;;;;;4.73;0.63;;;;;;;;;;10393422;28;20082;-63
2021/09/17 05:59:29;;;;;;;1.40;0.32;;;;;;;;;;10379936;28;20047;-63
2021/09/17 06:04:27;;;;;;;0.33;0.33;;;;;;;;;;10403138;28;20692;-65
2021/09/17 06:09:24;;;;;;;0.80;0.10;;;;;;;;;;10374673;28;20125;-61
2021/09/17 06:14:21;;;;;;;1.03;0.30;;;;;;;;;;10399060;28;20035;-63
2021/09/17 06:19:19;;;;;;;0.57;0.30;;;;;;;;;;10376748;28;20031;-63
2021/09/17 06:24:16;;;;;;;2.97;0.50;;;;;;;;;;10390458;28;20056;-65
2021/09/17 06:29:13;;;;;;;0.43;0.17;;;;;;;;;;10389295;28;20084;-63
2021/09/17 06:34:11;;;;;;;0.60;0.37;;;;;;;;;;10383565;28;20028;-62
2021/09/17 06:39:08;;;;;;;1.50;0.20;;;;;;;;;;10381961;28;20032;-62
2021/09/17 06:44:06;;;;;;;1.17;0.47;;;;;;;;;;10387083;28;20088;-61
2021/09/17 06:49:03;;;;;;;0.10;0.10;;;;;;;;;;10390849;28;20036;-61
2021/09/17 06:54:00;;;;;;;0.47;0.10;;;;;;;;;;10394781;28;20028;-62
2021/09/17 06:58:58;;;;;;;4.83;0.50;;;;;;;;;;10385523;28;20119;-62
2021/09/17 07:03:55;;;;;;;1.50;0.10;;;;;;;;;;10382406;28;20028;-64
2021/09/17 07:08:54;;;;;;;0.10;0.10;;;;;;;;;;10390867;28;20387;-63
2021/09/17 07:13:51;;;;;;;;;;;;;;;;;;10389297;28;20103;-65
2021/09/17 07:18:48;;;;;;;1.00;0.20;;;;;;;;;;10386846;28;20053;-63
2021/09/17 07:23:46;;;;;;;0.60;0.17;;;;;;;;;;10385328;28;20124;-65
2021/09/17 07:28:43;;;;;;;1.03;0.50;;;;;;;;;;10405634;28;20642;-64
2021/09/17 07:33:40;;;;;;;1.27;0.30;;;;;;;;;;10382552;28;20032;-64
2021/09/17 07:38:38;;;;;;;1.23;0.13;;;;;;;;;;10403747;28;20115;-62
2021/09/17 07:43:35;;;;;;;0.07;0.07;;;;;;;;;;10405479;28;20071;-65
2021/09/17 07:48:33;;;;;;;1.70;0.10;;;;;;;;;;10373717;28;21301;-62
2021/09/17 07:53:30;;;;;;;0.00;0.00;;;;;;;;;;10407757;28;20388;-63
2021/09/17 07:58:28;;;;;;;0.00;0.00;;;;;;;;;;10379507;28;20032;-65
2021/09/17 08:03:29;;;;;;;0.00;0.00;;;;;;;;;;10401819;28;20017;-64
2021/09/17 08:08:27;;;;;;;0.17;0.17;;;;;;;;;;10394532;28;20041;-67
2021/09/17 08:13:25;;;;;;;0.10;0.10;;;;;;;;;;10384131;28;20508;-65
2021/09/17 08:18:22;;;;;;;1.03;0.20;;;;;;;;;;10384960;28;20047;-63
2021/09/17 08:23:20;;;;;;;2.17;0.23;;;;;;;;;;10391261;28;20143;-60
2021/09/17 08:28:18;;;;;;;1.45;0.10;;;;;;;;;;10371777;28;20031;-62
2021/09/17 08:33:15;;;;;;;0.10;0.10;;;;;;;;;;10405569;28;21095;-65
2021/09/17 08:38:15;;;;;;;0.93;0.15;;;;;;;;;;10367970;28;20078;-64
2021/09/17 08:43:14;;;;;;;0.00;0.00;;;;;;;;;;10398950;28;20109;-62
2021/09/17 08:48:14;;;;;;;0.65;0.00;;;;;;;;;;10401493;28;20032;-60
2021/09/17 08:53:14;;;;;;;5.15;0.22;;;;;;;;;;10369536;28;20088;-65
2021/09/17 08:58:12;;;;;;;0.10;0.10;;;;;;;;;;10387219;28;20763;-62
2021/09/17 09:03:10;;;;;;;2.90;0.20;;;;;;;;;;10402499;28;20093;-60
2021/09/17 09:08:08;;;;;;;1.13;0.00;;;;;;;;;;10395876;28;20032;-62
2021/09/17 09:13:06;;;;;;;0.10;0.10;;;;;;;;;;10400342;28;20413;-63
2021/09/17 09:18:12;;;;;;;1.08;0.20;;;;;;;;;;10379199;28;20032;-66
2021/09/17 09:23:20;;;;;;;0.45;0.20;;;;;;;;;;10382790;28;20127;-63
2021/09/17 09:28:19;;;;;;;4.55;1.33;;;;;;;;;;10396755;28;20408;-62
2021/09/17 09:33:23;;;;;;;8.25;2.33;;;;;;;;;;10403497;28;20126;-64
2021/09/17 09:38:31;;;;;;;2.72;1.08;;;;;;;;;;10404957;28;20107;-66
2021/09/17 09:43:32;;;;;;;1.45;0.40;;;;;;;;;;10388709;28;20040;-64
2021/09/17 09:48:29;;;;;;;1.10;0.70;;;;;;;;;;10399506;28;20039;-62
2021/09/17 09:53:27;;;;;;;0.90;0.50;;;;;;;;;;10381548;28;20020;-61
2021/09/17 09:58:24;;;;;;;1.87;0.67;;;;;;;;;;10388404;28;20304;-64
2021/09/17 10:03:21;;;;;;;;;;;;;;;;;;10392895;28;20111;-64
2021/09/17 10:08:19;;;;;;;0.10;0.10;;;;;;;;;;10385684;28;19924;-63
2021/09/17 10:13:16;;;;;;;;;;;;;;;;;;10391920;28;20035;-64
2021/09/17 10:18:16;;;;;;;1.63;0.20;;;;;;;;;;10375081;28;19919;-64
2021/09/17 10:23:25;;;;;;;0.10;0.00;;;;;;;;;;10381380;28;20477;-63
2021/09/17 10:28:22;;;;;;;1.75;0.20;;;;;;;;;;10365131;28;20036;-62
2021/09/17 10:33:25;;;;;;;0.28;0.28;;;;;;;;;;10383583;28;20054;-64
2021/09/17 10:38:26;;;;;;;2.47;0.10;;;;;;;;;;10377494;28;20566;-63
2021/09/17 10:43:44;;;;;;;0.75;0.00;;;;;;;;;;10398055;28;20039;-62
2021/09/17 10:48:41;;;;;;;0.00;0.00;;;;;;;;;;10392920;28;20162;-64
2021/09/17 10:53:38;;;;;;;0.27;0.13;;;;;;;;;;10402208;28;20281;-65
2021/09/17 10:58:36;;;;;;;1.13;0.10;;;;;;;;;;10397453;28;20024;-63
2021/09/17 11:03:36;;;;;;;0.47;0.17;;;;;;;;;;10375842;28;20055;-64
2021/09/17 11:08:47;;;;;;;0.50;0.40;;;;;;;;;;10395569;28;20315;-63
2021/09/17 11:13:45;;;;;;;2.03;0.20;;;;;;;;;;10367639;28;20355;-66
2021/09/17 11:18:49;;;;;;;4.18;0.20;;;;;;;;;;10397321;28;20020;-64
2021/09/17 11:23:51;;;;;;;4.38;0.80;;;;;;;;;;10369387;28;20574;-64
2021/09/17 11:29:05;;;;;;;0.47;0.10;;;;;;;;;;10379805;28;20696;-68
2021/09/17 11:34:04;;;;;;;0.20;0.10;;;;;;;;;;10402952;28;20101;-69
2021/09/17 11:39:21;;;;;;;1.17;0.10;;;;;;;;;;10391448;28;20043;-68
2021/09/17 11:44:38;;;;;;;0.10;0.10;;;;;;;;;;10407147;28;20055;-69
2021/09/17 11:49:37;;;;;;;0.28;0.00;;;;;;;;;;10385101;28;20547;-65
2021/09/17 11:54:35;;;;;;;0.57;0.00;;;;;;;;;;10406059;28;20032;-64
2021/09/17 11:59:32;;;;;;;0.52;0.50;;;;;;;;;;10405493;28;20044;-66
2021/09/17 12:04:30;;;;;;;0.63;0.60;;;;;;;;;;10396951;28;20655;-64
2021/09/17 12:09:28;;;;;;;1.17;0.20;;;;;;;;;;10374928;28;20796;-65
2021/09/17 12:14:25;;;;;;;1.17;0.08;;;;;;;;;;10366490;28;20062;-69
2021/09/17 12:19:25;;;;;;;2.22;0.20;;;;;;;;;;10394413;28;20043;-67
2021/09/17 12:24:23;;;;;;;0.88;0.20;;;;;;;;;;10401719;28;20291;-65
2021/09/17 12:29:20;;;;;;;0.00;0.00;;;;;;;;;;10370042;28;20032;-66
2021/09/17 12:34:21;;;;;;;0.90;0.15;;;;;;;;;;10399025;28;20398;-64
2021/09/17 12:39:26;;;;;;;0.40;0.40;;;;;;;;;;10384285;28;20075;-66
2021/09/17 12:44:23;;;;;;;0.10;0.00;;;;;;;;;;10396846;28;20102;-64
2021/09/17 12:49:20;;;;;;;0.17;0.17;;;;;;;;;;10386976;28;20051;-66
2021/09/17 12:54:18;;;;;;;2.83;0.10;;;;;;;;;;10399414;28;20032;-65
2021/09/17 12:59:17;;;;;;;0.40;0.00;;;;;;;;;;10385184;28;20089;-67
2021/09/17 13:04:15;;;;;;;1.60;0.13;;;;;;;;;;10355285;28;20805;-65
2021/09/17 13:09:13;;;;;;;0.55;0.32;;;;;;;;;;10395446;28;20420;-67
2021/09/17 13:14:10;;;;;;;1.07;0.10;;;;;;;;;;10380118;28;20051;-65
2021/09/17 13:19:09;;;;;;;8.53;1.77;;;;;;;;;;10400812;28;20497;-64
2021/09/17 13:24:06;;;;;;;8.52;4.00;;;;;;;;;;10376431;28;20040;-66
2021/09/17 13:29:04;;;;;;;10.17;4.80;;;;;;;;;;10393618;28;20443;-65
2021/09/17 13:34:01;;;;;;;7.57;4.70;;;;;;;;;;10402838;28;20270;-65
2021/09/17 13:38:58;;;;;;;10.10;5.20;;;;;;;;;;10399960;28;20563;-64
2021/09/17 13:43:56;;;;;;;10.13;5.15;;;;;;;;;;10390051;28;20028;-64
2021/09/17 13:48:54;;;;;;;8.80;4.55;;;;;;;;;;10405488;28;20048;-65
2021/09/17 13:53:51;;;;;;;10.80;4.97;;;;;;;;;;10381857;28;20432;-63
2021/09/17 13:58:48;;;;;;;5.37;2.73;;;;;;;;;;10387340;28;20059;-63
2021/09/17 14:03:46;;;;;;;4.60;2.07;;;;;;;;;;10395609;28;20345;-64
2021/09/17 14:08:43;;;;;;;4.00;2.23;;;;;;;;;;10412876;22;20335;-61
2021/09/17 14:13:41;;;;;;;4.95;1.98;;;;;;;;;;10333062;28;20017;-62
2021/09/17 14:18:38;;;;;;;3.20;1.15;;;;;;;;;;10320359;28;20047;-62
2021/09/17 14:23:36;;;;;;;1.27;0.87;;;;;;;;;;10307310;28;20028;-61
2021/09/17 14:28:33;;;;;;;0.87;0.40;;;;;;;;;;10312517;28;20279;-61
2021/09/17 14:33:30;;;;;;;7.00;2.33;;;;;;;;;;10310122;28;20071;-61
2021/09/17 14:38:28;;;;;;;2.77;0.60;;;;;;;;;;10320971;28;20278;-61
2021/09/17 14:43:25;;;;;;;1.13;0.30;;;;;;;;;;10300027;28;20328;-61
2021/09/17 14:48:23;;;;;;;0.97;0.63;;;;;;;;;;10328716;28;20434;-61
2021/09/17 14:53:20;;;;;;;0.35;0.20;;;;;;;;;;10309386;28;20272;-60
2021/09/17 14:58:17;;;;;;;0.98;0.20;;;;;;;;;;10296804;28;20066;-61
2021/09/17 15:03:15;;;;;;;0.27;0.20;;;;;;;;;;10329177;28;20044;-61
2021/09/17 15:08:13;;;;;;;0.32;0.17;;;;;;;;;;10308656;28;20060;-61
2021/09/17 15:13:10;;;;;;;2.57;0.20;;;;;;;;;;10307664;28;20090;-61
2021/09/17 15:18:07;;;;;;;1.35;0.10;;;;;;;;;;10290636;28;20033;-61
2021/09/17 15:23:06;;;;;;;0.77;0.10;;;;;;;;;;10301402;28;20573;-61
2021/09/17 15:28:03;;;;;;;0.20;0.10;;;;;;;;;;10278533;28;20040;-61
2021/09/17 15:33:01;;;;;;;;;;;;;;;;;;10257873;28;20034;-61
2021/09/17 15:37:59;;;;;;;0.00;0.00;;;;;;;;;;10297307;28;19912;-61
2021/09/17 15:42:57;;;;;;;0.15;0.10;;;;;;;;;;10319439;28;20380;-61
2021/09/17 15:47:55;;;;;;;0.43;0.10;;;;;;;;;;10312722;28;20612;-61
2021/09/17 15:52:52;;;;;;;;;;;;;;;;;;10327051;28;20402;-61
2021/09/17 15:57:49;;;;;;;2.27;0.20;;;;;;;;;;10325260;28;19913;-61
2021/09/17 16:02:46;;;;;;;;;;;;;;;;;;10305455;28;20029;-60
2021/09/17 16:07:48;;;;;;;0.20;0.10;;;;;;;;;;10323379;28;19916;-60
2021/09/17 16:12:46;;;;;;;0.85;0.10;;;;;;;;;;10301888;28;20041;-61
2021/09/17 16:17:44;;;;;;;0.10;0.10;;;;;;;;;;10324818;28;20491;-60
2021/09/17 16:22:41;;;;;;;;;;;;;;;;;;10297397;28;20279;-61
2021/09/17 16:27:40;;;;;;;0.20;0.17;;;;;;;;;;10297692;28;19921;-61
2021/09/17 16:32:38;;;;;;;0.22;0.10;;;;;;;;;;10320294;28;20029;-61
2021/09/17 16:37:36;;;;;;;;;;;;;;;;;;10304844;28;21848;-60
2021/09/17 16:42:33;;;;;;;0.88;0.20;;;;;;;;;;10317872;28;19913;-60
2021/09/17 16:47:31;;;;;;;0.00;0.00;;;;;;;;;;10268657;28;20040;-61
2021/09/17 16:52:29;;;;;;;0.40;0.03;;;;;;;;;;10313727;28;20649;-61
2021/09/17 16:57:28;;;;;;;1.48;0.10;;;;;;;;;;10310965;28;20495;-60
2021/09/17 17:02:25;;;;;;;0.30;0.20;;;;;;;;;;10308918;28;20376;-61
2021/09/17 17:07:23;;;;;;;0.30;0.00;;;;;;;;;;10304088;28;20037;-60
2021/09/17 17:12:20;;;;;;;0.75;0.00;;;;;;;;;;10358806;28;20036;-60
2021/09/17 17:17:19;;;;;;;1.88;0.20;;;;;;;;;;10364763;28;20028;-60
2021/09/17 17:22:18;;;;;;;0.55;0.28;;;;;;;;;;10373364;28;20035;-60
2021/09/17 17:27:16;;;;;;;0.10;0.10;;;;;;;;;;10374919;28;20055;-60
2021/09/17 17:32:14;;;;;;;1.08;0.00;;;;;;;;;;10374168;28;20033;-60
2021/09/17 17:37:13;;;;;;;0.00;0.00;;;;;;;;;;10349702;28;20046;-60
2021/09/17 17:42:11;;;;;;;0.00;0.00;;;;;;;;;;10378496;28;20033;-60
2021/09/17 17:47:08;;;;;;;0.20;0.10;;;;;;;;;;10347292;28;20028;-60
2021/09/17 17:52:07;;;;;;;0.00;0.00;;;;;;;;;;10348801;28;20421;-59
2021/09/17 17:57:05;;;;;;;1.10;0.08;;;;;;;;;;10351585;28;20041;-60
2021/09/17 18:02:03;;;;;;;1.00;0.35;;;;;;;;;;10357612;28;20041;-60
2021/09/17 18:07:03;;;;;;;0.10;0.10;;;;;;;;;;10363598;28;20041;-60
2021/09/17 18:12:01;;;;;;;0.10;0.10;;;;;;;;;;10370694;27;20029;-60
2021/09/17 18:16:58;;;;;;;0.10;0.10;;;;;;;;;;10372547;28;20035;-60
2021/09/17 18:21:56;;;;;;;0.10;0.10;;;;;;;;;;10377623;28;20241;-60
2021/09/17 18:26:53;;;;;;;0.00;0.00;;;;;;;;;;10374325;28;20033;-60
2021/09/17 18:31:51;;;;;;;0.53;0.20;;;;;;;;;;10346636;28;20120;-60
2021/09/17 18:36:48;;;;;;;0.45;0.15;;;;;;;;;;10376191;28;20640;-60
2021/09/17 18:41:46;;;;;;;0.15;0.15;;;;;;;;;;10369783;28;20501;-60
2021/09/17 18:46:45;;;;;;;0.13;0.10;;;;;;;;;;10377797;28;20021;-59
2021/09/17 18:51:44;;;;;;;0.25;0.10;;;;;;;;;;10358689;28;20044;-59
2021/09/17 18:56:44;;;;;;;0.30;0.30;;;;;;;;;;10351896;28;20102;-59
2021/09/17 19:01:43;;;;;;;0.10;0.10;;;;;;;;;;10362549;28;20028;-60
2021/09/17 19:06:41;;;;;;;0.40;0.30;;;;;;;;;;10352220;28;20029;-59
2021/09/17 19:11:38;;;;;;;0.43;0.20;;;;;;;;;;10346395;28;20033;-59
2021/09/17 19:16:36;;;;;;;0.53;0.30;;;;;;;;;;10364490;28;20036;-60
2021/09/17 19:21:34;;;;;;;0.10;0.10;;;;;;;;;;10376673;28;20044;-60
2021/09/17 19:26:32;;;;;;;0.10;0.10;;;;;;;;;;10370938;28;20040;-60
2021/09/17 19:31:30;;;;;;;0.32;0.32;;;;;;;;;;10377494;28;20036;-59
2021/09/17 19:36:29;;;;;;;0.63;0.30;;;;;;;;;;10377442;28;20437;-59
2021/09/17 19:41:27;;;;;;;1.10;0.20;;;;;;;;;;10366314;28;20106;-57
2021/09/17 19:46:24;;;;;;;0.20;0.20;;;;;;;;;;10386163;28;20049;-60
2021/09/17 19:51:23;;;;;;;0.20;0.20;;;;;;;;;;10385957;28;20040;-60
2021/09/17 19:56:20;;;;;;;;;;;;;;;;;;10387216;28;20052;-59
2021/09/17 20:01:18;;;;;;;0.10;0.10;;;;;;;;;;10414533;28;19912;-60
2021/09/17 20:06:16;;;;;;;0.20;0.20;;;;;;;;;;10395920;28;20064;-59
2021/09/17 20:11:15;;;;;;;1.33;0.30;;;;;;;;;;10386861;28;20051;-60
2021/09/17 20:16:13;;;;;;;;;;;;;;;;;;10350545;28;20041;-61
2021/09/17 20:21:11;;;;;;;0.10;0.10;;;;;;;;;;10366992;28;20385;-61
2021/09/17 20:26:08;;;;;;;0.30;0.20;;;;;;;;;;10343127;28;20245;-59
2021/09/17 20:31:06;;;;;;;0.47;0.20;;;;;;;;;;10363402;28;20067;-60
2021/09/17 20:36:08;;;;;;;0.20;0.20;;;;;;;;;;10342746;28;20040;-58
2021/09/17 20:41:06;;;;;;;0.30;0.30;;;;;;;;;;10348068;28;20163;-60
2021/09/17 20:46:03;;;;;;;1.30;0.20;;;;;;;;;;10365026;28;20120;-62
2021/09/17 20:51:01;;;;;;;0.20;0.20;;;;;;;;;;10367831;28;20040;-59
2021/09/17 20:55:58;;;;;;;1.97;0.30;;;;;;;;;;10358359;28;20286;-60
2021/09/17 21:00:56;;;;;;;3.33;0.27;;;;;;;;;;10366848;28;20040;-62
2021/09/17 21:05:56;;;;;;;0.40;0.20;;;;;;;;;;10374953;28;20136;-63
2021/09/17 21:10:54;;;;;;;0.85;0.77;;;;;;;;;;10358514;28;20036;-59
2021/09/17 21:15:51;;;;;;;0.30;0.30;;;;;;;;;;10349132;28;20055;-60
2021/09/17 21:20:49;;;;;;;0.30;0.20;;;;;;;;;;10365058;28;20044;-59
2021/09/17 21:25:46;;;;;;;1.73;0.60;;;;;;;;;;10370184;28;20033;-61
2021/09/17 21:30:43;;;;;;;0.30;0.30;;;;;;;;;;10375571;28;20040;-61
2021/09/17 21:35:41;;;;;;;2.00;0.50;;;;;;;;;;10366021;28;20047;-62
2021/09/17 21:40:38;;;;;;;1.50;0.60;;;;;;;;;;10355108;28;20557;-58
2021/09/17 21:45:36;;;;;;;1.07;0.47;;;;;;;;;;10369930;28;20120;-58
2021/09/17 21:50:33;;;;;;;3.20;0.40;;;;;;;;;;10338258;28;20051;-60
2021/09/17 21:55:31;;;;;;;1.73;0.60;;;;;;;;;;10369837;28;20127;-59
2021/09/17 22:00:28;;;;;;;3.73;0.60;;;;;;;;;;10356140;28;20040;-62
2021/09/17 22:05:26;;;;;;;1.53;0.60;;;;;;;;;;10377253;28;20032;-59
2021/09/17 22:10:23;;;;;;;1.03;0.40;;;;;;;;;;10355467;28;20069;-56
2021/09/17 22:15:21;;;;;;;0.50;0.47;;;;;;;;;;10367541;28;20089;-61
2021/09/17 22:20:18;;;;;;;2.27;0.63;;;;;;;;;;10372293;28;20406;-59
2021/09/17 22:25:16;;;;;;;8.53;1.07;;;;;;;;;;10381777;28;20037;-61
2021/09/17 22:30:13;;;;;;;0.70;0.70;;;;;;;;;;10377612;28;20067;-60
2021/09/17 22:35:11;;;;;;;0.63;0.63;;;;;;;;;;10376011;28;20032;-61
2021/09/17 22:40:09;;;;;;;2.37;0.57;;;;;;;;;;10372591;28;20043;-62
2021/09/17 22:45:06;;;;;;;0.77;0.28;;;;;;;;;;10344555;28;20246;-58
2021/09/17 22:50:05;;;;;;;1.27;1.10;;;;;;;;;;10359581;28;20491;-59
2021/09/17 22:55:02;;;;;;;;;;;;;;;;;;10363430;28;20043;-61
2021/09/17 22:59:59;;;;;;;0.70;0.55;;;;;;;;;;10371732;28;19916;-61
2021/09/17 23:04:57;;;;;;;1.23;0.93;;;;;;;;;;10359985;28;20032;-59
2021/09/17 23:09:54;;;;;;;4.33;0.80;;;;;;;;;;10369043;28;20052;-59
2021/09/17 23:14:52;;;;;;;1.53;1.10;;;;;;;;;;10374304;28;20051;-60
2021/09/17 23:19:49;;;;;;;1.50;0.83;;;;;;;;;;10383405;28;20037;-60
2021/09/17 23:24:47;;;;;;;1.90;0.80;;;;;;;;;;10385375;28;20382;-59
2021/09/17 23:29:45;;;;;;;1.63;0.73;;;;;;;;;;10351744;28;20393;-60
2021/09/17 23:34:42;;;;;;;3.13;1.13;;;;;;;;;;10333023;28;20317;-59
2021/09/17 23:39:40;;;;;;;2.93;0.80;;;;;;;;;;10338345;28;20431;-58
2021/09/17 23:44:37;;;;;;;1.43;0.80;;;;;;;;;;10391552;22;20036;-62
2021/09/17 23:49:35;;;;;;;1.80;0.97;;;;;;;;;;10289760;28;20516;-61
2021/09/17 23:54:32;;;;;;;3.53;1.03;;;;;;;;;;10265035;28;20040;-61
2021/09/17 23:59:30;;;;;;;2.57;0.77;;;;;;;;;;10237697;28;20029;-63
